Flight Track Log - Related Links

Times and Time Zones

All times are in EDT time to prevent confusion due to time zone crossing. See the N431AF flight status page for this flight to view local times or setup timezone preferences in your user account.

Time Position Orientation Groundspeed Altitude Reporting Facility
EDT Latitude Longitude Course Direction KTS MPH feet Rate Location/Type
Tue 06:27:25 PM 32.2597 -94.3547 332° Northwest 125 144 1,900  Level Fort Worth Center
Tue 06:28:50 PM 32.3022 -94.3853 329° Northwest 120 138 2,700 579 Climbing Fort Worth Center
Tue 06:29:50 PM 32.3278 -94.4067 325° Northwest 120 138 3,300 650 Climbing Fort Worth Center
Tue 06:30:50 PM 32.3556 -94.4278 327° Northwest 115 132 4,000 350 Climbing Fort Worth Center
Tue 06:31:50 PM 32.3853 -94.4539 323° Northwest 133 153 4,000  Level Fort Worth Center
Tue 06:32:51 PM 32.4214 -94.4822 326° Northwest 147 169 4,000  Level Fort Worth Center
Tue 06:33:50 PM 32.4533 -94.5058 328° Northwest 152 175 4,000 -50 Level Fort Worth Center
Tue 06:34:50 PM 32.4917 -94.5367 326° Northwest 152 175 3,900 -50 Descending Fort Worth Center
Tue 06:35:51 PM 32.5192 -94.5606 324° Northwest 152 175 3,900 50 Level Fort Worth Center
Tue 06:36:50 PM 32.5575 -94.5889 328° Northwest 147 169 4,000 50 Climbing Fort Worth Center
Tue 06:37:50 PM 32.5872 -94.6100 329° Northwest 147 169 4,000  Level Fort Worth Center
Tue 06:38:50 PM 32.6256 -94.6408 326° Northwest 147 169 4,000  Level Fort Worth Center
Tue 06:39:50 PM 32.6531 -94.6622 327° Northwest 147 169 4,000  Level Fort Worth Center
Tue 06:40:50 PM 32.6869 -94.6883 327° Northwest 141 162 4,000  Level Fort Worth Center
Tue 06:41:50 PM 32.7231 -94.7169 326° Northwest 146 168 4,000  Level Fort Worth Center
Tue 06:42:50 PM 32.7547 -94.7358 333° Northwest 158 182 4,000 -50 Level Fort Worth Center
Tue 06:43:50 PM 32.7889 -94.7669 327° Northwest 174 200 3,900  Descending Fort Worth Center
Tue 06:44:50 PM 32.8250 -94.7956 326° Northwest 168 193 4,000  Climbing Fort Worth Center
Tue 06:45:50 PM 32.8589 -94.8217 327° Northwest 157 181 3,900 -50 Descending Fort Worth Center
Tue 06:46:50 PM 32.8908 -94.8503 323° Northwest 150 173 3,900  Level Fort Worth Center
Tue 06:47:50 PM 32.9247 -94.8767 327° Northwest 150 173 3,900  Level Fort Worth Center
Tue 06:48:50 PM 32.9586 -94.9028 327° Northwest 144 166 3,900  Level Fort Worth Center
Tue 06:49:50 PM 32.9925 -94.9317 324° Northwest 149 171 3,900  Level Fort Worth Center
Tue 06:50:50 PM 33.0267 -94.9606 325° Northwest 149 171 3,900  Level Fort Worth Center
Tue 06:51:50 PM 33.0606 -94.9892 325° Northwest 144 166 3,900  Level Fort Worth Center
Tue 06:52:50 PM 33.0925 -95.0156 325° Northwest 144 166 3,900  Level Fort Worth Center
Tue 06:53:50 PM 33.1283 -95.0419 328° Northwest 149 171 3,900  Level Fort Worth Center
Tue 06:54:51 PM 33.1644 -95.0708 326° Northwest 149 171 3,900  Level Fort Worth Center
Tue 06:55:50 PM 33.2003 -95.0997 326° Northwest 149 171 3,900  Level Fort Worth Center
Tue 06:56:50 PM 33.2364 -95.1261 329° Northwest 149 171 3,900  Level Fort Worth Center
Tue 06:57:50 PM 33.2661 -95.1525 323° Northwest 149 171 3,900 50 Level Fort Worth Center
Tue 06:58:50 PM 33.2978 -95.1792 325° Northwest 144 166 4,000 50 Climbing Fort Worth Center
Tue 06:59:50 PM 33.3339 -95.2081 326° Northwest 144 166 4,000  Level Fort Worth Center
Tue 07:00:50 PM 33.3678 -95.2347 327° Northwest 150 173 4,000  Level Fort Worth Center
Tue 07:01:50 PM 33.4036 -95.2611 328° Northwest 150 173 4,000  Level Fort Worth Center
Tue 07:02:50 PM 33.4375 -95.2900 325° Northwest 150 173 4,000 -150 Level Fort Worth Center
Tue 07:03:50 PM 33.4756 -95.3217 325° Northwest 150 173 3,700 -400 Descending Fort Worth Center
Tue 07:04:50 PM 33.5094 -95.3508 324° Northwest 150 173 3,200 -500 Descending Fort Worth Center
Tue 07:06:00 PM 33.5481 -95.3814 320° Northwest  Level FlightAware Approximate

Login

Don't have an account? Register now (free) for customized features, flight alerts, and more!